sensor_id;sensor_type;location;lat;lon;timestamp;temperature;humidity
73133;DHT22;61320;52.008;4.530;2023-08-31T00:00:48;14.54;86.25
73133;DHT22;61320;52.008;4.530;2023-08-31T00:03:16;14.57;85.85
73133;DHT22;61320;52.008;4.530;2023-08-31T00:05:43;14.56;86.65
73133;DHT22;61320;52.008;4.530;2023-08-31T00:08:09;14.52;87.01
73133;DHT22;61320;52.008;4.530;2023-08-31T00:10:37;14.48;86.61
73133;DHT22;61320;52.008;4.530;2023-08-31T00:13:04;14.31;87.09
73133;DHT22;61320;52.008;4.530;2023-08-31T00:15:32;14.28;86.58
73133;DHT22;61320;52.008;4.530;2023-08-31T00:18:02;14.21;87.19
73133;DHT22;61320;52.008;4.530;2023-08-31T00:20:31;14.19;87.72
73133;DHT22;61320;52.008;4.530;2023-08-31T00:22:59;14.24;87.38
73133;DHT22;61320;52.008;4.530;2023-08-31T00:25:24;14.14;86.61
73133;DHT22;61320;52.008;4.530;2023-08-31T00:27:50;14.16;87.24
73133;DHT22;61320;52.008;4.530;2023-08-31T00:30:19;14.20;87.54
73133;DHT22;61320;52.008;4.530;2023-08-31T00:32:44;14.23;86.79
73133;DHT22;61320;52.008;4.530;2023-08-31T00:35:12;14.17;86.79
73133;DHT22;61320;52.008;4.530;2023-08-31T00:40:04;14.10;85.50
73133;DHT22;61320;52.008;4.530;2023-08-31T00:42:30;14.02;85.92
73133;DHT22;61320;52.008;4.530;2023-08-31T00:44:56;14.05;86.11
73133;DHT22;61320;52.008;4.530;2023-08-31T00:47:22;14.07;85.84
73133;DHT22;61320;52.008;4.530;2023-08-31T00:49:48;14.06;85.92
73133;DHT22;61320;52.008;4.530;2023-08-31T00:52:15;14.06;85.89
73133;DHT22;61320;52.008;4.530;2023-08-31T00:54:40;14.07;84.82
73133;DHT22;61320;52.008;4.530;2023-08-31T00:57:08;14.02;85.47
73133;DHT22;61320;52.008;4.530;2023-08-31T00:59:33;13.99;85.90
73133;DHT22;61320;52.008;4.530;2023-08-31T01:02:15;13.99;84.77
73133;DHT22;61320;52.008;4.530;2023-08-31T01:10:41;13.90;85.54
73133;DHT22;61320;52.008;4.530;2023-08-31T01:13:15;13.91;85.19
73133;DHT22;61320;52.008;4.530;2023-08-31T01:15:45;13.90;84.73
73133;DHT22;61320;52.008;4.530;2023-08-31T01:18:16;13.90;85.50
73133;DHT22;61320;52.008;4.530;2023-08-31T01:20:50;13.93;85.63
73133;DHT22;61320;52.008;4.530;2023-08-31T01:23:19;13.95;85.79
73133;DHT22;61320;52.008;4.530;2023-08-31T01:25:47;14.00;85.34
73133;DHT22;61320;52.008;4.530;2023-08-31T01:28:13;13.96;85.47
73133;DHT22;61320;52.008;4.530;2023-08-31T01:30:40;13.99;85.38
73133;DHT22;61320;52.008;4.530;2023-08-31T01:33:06;14.00;86.00
73133;DHT22;61320;52.008;4.530;2023-08-31T01:35:40;14.02;86.63
73133;DHT22;61320;52.008;4.530;2023-08-31T01:38:10;13.98;87.50
73133;DHT22;61320;52.008;4.530;2023-08-31T01:40:48;13.93;88.14
73133;DHT22;61320;52.008;4.530;2023-08-31T01:43:17;13.90;88.14
73133;DHT22;61320;52.008;4.530;2023-08-31T01:45:45;13.83;88.40
73133;DHT22;61320;52.008;4.530;2023-08-31T01:48:14;13.83;88.60
73133;DHT22;61320;52.008;4.530;2023-08-31T01:50:39;13.83;88.14
73133;DHT22;61320;52.008;4.530;2023-08-31T01:53:05;13.76;88.30
73133;DHT22;61320;52.008;4.530;2023-08-31T01:55:32;13.75;88.53
73133;DHT22;61320;52.008;4.530;2023-08-31T01:57:58;13.78;88.61
73133;DHT22;61320;52.008;4.530;2023-08-31T02:00:25;13.79;88.58
73133;DHT22;61320;52.008;4.530;2023-08-31T02:02:51;13.80;88.77
73133;DHT22;61320;52.008;4.530;2023-08-31T02:05:16;13.83;88.81
73133;DHT22;61320;52.008;4.530;2023-08-31T02:07:42;13.85;88.74
73133;DHT22;61320;52.008;4.530;2023-08-31T02:10:08;13.85;88.64
73133;DHT22;61320;52.008;4.530;2023-08-31T02:12:33;13.90;88.80
73133;DHT22;61320;52.008;4.530;2023-08-31T02:14:59;13.90;88.85
73133;DHT22;61320;52.008;4.530;2023-08-31T02:17:25;13.90;88.44
73133;DHT22;61320;52.008;4.530;2023-08-31T02:19:51;13.91;88.11
73133;DHT22;61320;52.008;4.530;2023-08-31T02:22:16;13.85;87.91
73133;DHT22;61320;52.008;4.530;2023-08-31T02:24:42;13.87;88.07
73133;DHT22;61320;52.008;4.530;2023-08-31T02:27:07;13.85;88.07
73133;DHT22;61320;52.008;4.530;2023-08-31T02:29:33;13.86;88.03
73133;DHT22;61320;52.008;4.530;2023-08-31T02:31:58;13.85;87.82
73133;DHT22;61320;52.008;4.530;2023-08-31T02:34:24;13.83;87.73
73133;DHT22;61320;52.008;4.530;2023-08-31T02:36:49;13.82;87.90
73133;DHT22;61320;52.008;4.530;2023-08-31T02:39:15;13.80;87.46
73133;DHT22;61320;52.008;4.530;2023-08-31T02:41:41;13.80;87.44
73133;DHT22;61320;52.008;4.530;2023-08-31T02:44:06;13.79;87.65
73133;DHT22;61320;52.008;4.530;2023-08-31T02:46:32;13.76;87.47
73133;DHT22;61320;52.008;4.530;2023-08-31T02:48:57;13.76;87.46
73133;DHT22;61320;52.008;4.530;2023-08-31T02:51:23;13.75;87.58
73133;DHT22;61320;52.008;4.530;2023-08-31T02:53:49;13.75;87.72
73133;DHT22;61320;52.008;4.530;2023-08-31T02:56:14;13.76;87.60
73133;DHT22;61320;52.008;4.530;2023-08-31T02:58:40;13.73;87.81
73133;DHT22;61320;52.008;4.530;2023-08-31T03:01:09;13.76;87.70
73133;DHT22;61320;52.008;4.530;2023-08-31T03:03:40;13.75;87.29
73133;DHT22;61320;52.008;4.530;2023-08-31T03:06:07;13.72;87.05
73133;DHT22;61320;52.008;4.530;2023-08-31T03:08:36;13.68;86.81
73133;DHT22;61320;52.008;4.530;2023-08-31T03:11:05;13.65;87.00
73133;DHT22;61320;52.008;4.530;2023-08-31T03:13:32;13.61;86.90
73133;DHT22;61320;52.008;4.530;2023-08-31T03:15:59;13.57;87.05
73133;DHT22;61320;52.008;4.530;2023-08-31T03:18:25;13.57;87.04
73133;DHT22;61320;52.008;4.530;2023-08-31T03:20:50;13.55;86.79
73133;DHT22;61320;52.008;4.530;2023-08-31T03:23:16;13.55;86.40
73133;DHT22;61320;52.008;4.530;2023-08-31T03:25:41;13.51;86.41
73133;DHT22;61320;52.008;4.530;2023-08-31T03:28:07;13.45;86.87
73133;DHT22;61320;52.008;4.530;2023-08-31T03:30:33;13.44;86.97
73133;DHT22;61320;52.008;4.530;2023-08-31T03:32:59;13.45;87.20
73133;DHT22;61320;52.008;4.530;2023-08-31T03:35:24;13.48;86.70
73133;DHT22;61320;52.008;4.530;2023-08-31T03:37:53;13.49;86.51
73133;DHT22;61320;52.008;4.530;2023-08-31T03:40:19;13.48;86.34
73133;DHT22;61320;52.008;4.530;2023-08-31T03:42:44;13.45;86.79
73133;DHT22;61320;52.008;4.530;2023-08-31T03:45:10;13.48;86.34
73133;DHT22;61320;52.008;4.530;2023-08-31T03:47:36;13.42;86.22
73133;DHT22;61320;52.008;4.530;2023-08-31T03:50:01;13.39;86.97
73133;DHT22;61320;52.008;4.530;2023-08-31T03:52:26;13.41;87.08
73133;DHT22;61320;52.008;4.530;2023-08-31T03:54:52;13.38;86.36
73133;DHT22;61320;52.008;4.530;2023-08-31T03:57:18;13.35;85.86
73133;DHT22;61320;52.008;4.530;2023-08-31T03:59:43;13.30;87.03
73133;DHT22;61320;52.008;4.530;2023-08-31T04:02:09;13.37;86.50
73133;DHT22;61320;52.008;4.530;2023-08-31T04:04:34;13.35;86.68
73133;DHT22;61320;52.008;4.530;2023-08-31T04:07:00;13.34;87.18
73133;DHT22;61320;52.008;4.530;2023-08-31T04:09:25;13.37;87.03
73133;DHT22;61320;52.008;4.530;2023-08-31T04:11:51;13.42;85.74
73133;DHT22;61320;52.008;4.530;2023-08-31T04:14:16;13.34;86.77
73133;DHT22;61320;52.008;4.530;2023-08-31T04:16:44;13.37;87.07
73133;DHT22;61320;52.008;4.530;2023-08-31T04:19:10;13.38;87.27
73133;DHT22;61320;52.008;4.530;2023-08-31T04:21:35;13.39;86.50
73133;DHT22;61320;52.008;4.530;2023-08-31T04:24:02;13.39;86.82
73133;DHT22;61320;52.008;4.530;2023-08-31T04:26:28;13.41;85.97
73133;DHT22;61320;52.008;4.530;2023-08-31T04:28:54;13.42;86.63
73133;DHT22;61320;52.008;4.530;2023-08-31T04:31:20;13.47;86.55
73133;DHT22;61320;52.008;4.530;2023-08-31T04:33:46;13.48;86.08
73133;DHT22;61320;52.008;4.530;2023-08-31T04:36:12;13.51;85.49
73133;DHT22;61320;52.008;4.530;2023-08-31T04:38:37;13.47;85.71
73133;DHT22;61320;52.008;4.530;2023-08-31T04:41:03;13.47;86.94
73133;DHT22;61320;52.008;4.530;2023-08-31T04:43:29;13.51;86.59
73133;DHT22;61320;52.008;4.530;2023-08-31T04:45:55;13.54;85.86
73133;DHT22;61320;52.008;4.530;2023-08-31T04:48:21;13.51;85.79
73133;DHT22;61320;52.008;4.530;2023-08-31T04:50:46;13.52;86.60
73133;DHT22;61320;52.008;4.530;2023-08-31T04:53:12;13.54;87.07
73133;DHT22;61320;52.008;4.530;2023-08-31T04:55:38;13.55;87.24
73133;DHT22;61320;52.008;4.530;2023-08-31T04:58:04;13.57;87.22
73133;DHT22;61320;52.008;4.530;2023-08-31T05:00:29;13.61;87.09
73133;DHT22;61320;52.008;4.530;2023-08-31T05:02:55;13.62;86.61
73133;DHT22;61320;52.008;4.530;2023-08-31T05:05:21;13.62;86.10
73133;DHT22;61320;52.008;4.530;2023-08-31T05:07:47;13.61;86.54
73133;DHT22;61320;52.008;4.530;2023-08-31T05:10:12;13.63;86.30
73133;DHT22;61320;52.008;4.530;2023-08-31T05:12:38;13.68;86.49
73133;DHT22;61320;52.008;4.530;2023-08-31T05:15:04;13.69;87.03
73133;DHT22;61320;52.008;4.530;2023-08-31T05:17:30;13.73;87.10
73133;DHT22;61320;52.008;4.530;2023-08-31T05:20:05;13.78;85.55
73133;DHT22;61320;52.008;4.530;2023-08-31T05:22:30;13.80;85.73
73133;DHT22;61320;52.008;4.530;2023-08-31T05:24:56;13.83;86.24
73133;DHT22;61320;52.008;4.530;2023-08-31T05:27:21;13.80;86.80
73133;DHT22;61320;52.008;4.530;2023-08-31T05:29:47;13.82;87.05
73133;DHT22;61320;52.008;4.530;2023-08-31T05:32:12;13.83;87.11
73133;DHT22;61320;52.008;4.530;2023-08-31T05:34:38;13.86;87.20
73133;DHT22;61320;52.008;4.530;2023-08-31T05:37:05;13.89;87.09
73133;DHT22;61320;52.008;4.530;2023-08-31T05:39:30;13.87;87.17
73133;DHT22;61320;52.008;4.530;2023-08-31T05:41:56;13.85;87.01
73133;DHT22;61320;52.008;4.530;2023-08-31T05:44:22;13.83;86.98
73133;DHT22;61320;52.008;4.530;2023-08-31T05:46:48;13.85;87.29
73133;DHT22;61320;52.008;4.530;2023-08-31T05:49:13;13.89;87.41
73133;DHT22;61320;52.008;4.530;2023-08-31T05:51:39;13.93;87.20
73133;DHT22;61320;52.008;4.530;2023-08-31T05:54:04;13.96;86.85
73133;DHT22;61320;52.008;4.530;2023-08-31T05:56:30;13.91;86.43
73133;DHT22;61320;52.008;4.530;2023-08-31T05:58:56;13.90;86.65
73133;DHT22;61320;52.008;4.530;2023-08-31T06:01:21;13.91;87.13
73133;DHT22;61320;52.008;4.530;2023-08-31T06:03:50;13.96;86.79
73133;DHT22;61320;52.008;4.530;2023-08-31T06:06:15;13.98;85.66
73133;DHT22;61320;52.008;4.530;2023-08-31T06:08:41;13.93;85.39
73133;DHT22;61320;52.008;4.530;2023-08-31T06:11:08;13.95;86.54
73133;DHT22;61320;52.008;4.530;2023-08-31T06:13:34;13.99;86.66
73133;DHT22;61320;52.008;4.530;2023-08-31T06:15:59;14.05;87.13
73133;DHT22;61320;52.008;4.530;2023-08-31T06:18:25;14.07;87.11
73133;DHT22;61320;52.008;4.530;2023-08-31T06:20:51;14.09;87.07
73133;DHT22;61320;52.008;4.530;2023-08-31T06:23:17;14.12;86.57
73133;DHT22;61320;52.008;4.530;2023-08-31T06:25:43;14.16;87.02
73133;DHT22;61320;52.008;4.530;2023-08-31T06:28:10;14.19;86.67
73133;DHT22;61320;52.008;4.530;2023-08-31T06:30:36;14.21;86.50
73133;DHT22;61320;52.008;4.530;2023-08-31T06:33:02;14.23;87.13
73133;DHT22;61320;52.008;4.530;2023-08-31T06:35:27;14.30;86.93
73133;DHT22;61320;52.008;4.530;2023-08-31T06:37:53;14.34;86.09
73133;DHT22;61320;52.008;4.530;2023-08-31T06:40:21;14.38;86.93
73133;DHT22;61320;52.008;4.530;2023-08-31T06:42:47;14.47;86.52
73133;DHT22;61320;52.008;4.530;2023-08-31T06:45:12;14.51;86.50
73133;DHT22;61320;52.008;4.530;2023-08-31T06:47:38;14.58;86.92
73133;DHT22;61320;52.008;4.530;2023-08-31T06:50:04;14.64;87.34
73133;DHT22;61320;52.008;4.530;2023-08-31T06:52:30;14.69;87.32
73133;DHT22;61320;52.008;4.530;2023-08-31T06:54:55;14.74;86.34
73133;DHT22;61320;52.008;4.530;2023-08-31T06:57:26;14.86;86.83
73133;DHT22;61320;52.008;4.530;2023-08-31T06:59:52;14.92;87.11
73133;DHT22;61320;52.008;4.530;2023-08-31T07:02:18;14.99;86.48
73133;DHT22;61320;52.008;4.530;2023-08-31T07:04:48;15.02;86.91
73133;DHT22;61320;52.008;4.530;2023-08-31T07:07:14;15.10;87.16
73133;DHT22;61320;52.008;4.530;2023-08-31T07:09:42;15.16;87.33
73133;DHT22;61320;52.008;4.530;2023-08-31T07:12:08;15.25;87.26
73133;DHT22;61320;52.008;4.530;2023-08-31T07:14:34;15.30;87.35
73133;DHT22;61320;52.008;4.530;2023-08-31T07:17:00;15.36;87.45
73133;DHT22;61320;52.008;4.530;2023-08-31T07:19:25;15.42;87.28
73133;DHT22;61320;52.008;4.530;2023-08-31T07:21:52;15.51;87.00
73133;DHT22;61320;52.008;4.530;2023-08-31T07:24:20;15.57;86.82
73133;DHT22;61320;52.008;4.530;2023-08-31T07:26:45;15.61;86.38
73133;DHT22;61320;52.008;4.530;2023-08-31T07:29:11;15.66;86.50
73133;DHT22;61320;52.008;4.530;2023-08-31T07:31:36;15.68;86.23
73133;DHT22;61320;52.008;4.530;2023-08-31T07:34:01;15.73;86.32
73133;DHT22;61320;52.008;4.530;2023-08-31T07:36:28;15.78;86.40
73133;DHT22;61320;52.008;4.530;2023-08-31T07:38:54;15.83;85.49
73133;DHT22;61320;52.008;4.530;2023-08-31T07:41:19;15.84;84.26
73133;DHT22;61320;52.008;4.530;2023-08-31T07:43:45;15.93;83.89
73133;DHT22;61320;52.008;4.530;2023-08-31T07:46:10;15.90;83.86
73133;DHT22;61320;52.008;4.530;2023-08-31T07:48:36;15.91;84.56
73133;DHT22;61320;52.008;4.530;2023-08-31T07:51:01;15.98;84.41
73133;DHT22;61320;52.008;4.530;2023-08-31T07:53:28;16.01;83.91
73133;DHT22;61320;52.008;4.530;2023-08-31T07:55:55;16.06;84.25
73133;DHT22;61320;52.008;4.530;2023-08-31T07:58:22;16.04;82.91
73133;DHT22;61320;52.008;4.530;2023-08-31T08:00:49;15.98;81.99
73133;DHT22;61320;52.008;4.530;2023-08-31T08:03:14;15.94;81.37
73133;DHT22;61320;52.008;4.530;2023-08-31T08:05:40;15.90;81.73
73133;DHT22;61320;52.008;4.530;2023-08-31T08:08:06;15.97;82.45
73133;DHT22;61320;52.008;4.530;2023-08-31T08:10:32;16.01;82.40
73133;DHT22;61320;52.008;4.530;2023-08-31T08:12:57;16.02;80.46
73133;DHT22;61320;52.008;4.530;2023-08-31T08:15:24;16.01;78.70
73133;DHT22;61320;52.008;4.530;2023-08-31T08:17:49;15.97;80.35
73133;DHT22;61320;52.008;4.530;2023-08-31T08:20:15;16.01;80.26
73133;DHT22;61320;52.008;4.530;2023-08-31T08:22:40;16.04;80.86
73133;DHT22;61320;52.008;4.530;2023-08-31T08:25:06;16.18;82.34
73133;DHT22;61320;52.008;4.530;2023-08-31T08:27:32;16.26;78.18
73133;DHT22;61320;52.008;4.530;2023-08-31T08:30:05;16.29;81.86
73133;DHT22;61320;52.008;4.530;2023-08-31T08:32:33;16.42;81.48
73133;DHT22;61320;52.008;4.530;2023-08-31T08:34:59;16.57;82.45
73133;DHT22;61320;52.008;4.530;2023-08-31T08:37:24;16.69;82.24
73133;DHT22;61320;52.008;4.530;2023-08-31T08:39:50;16.74;79.80
73133;DHT22;61320;52.008;4.530;2023-08-31T08:42:26;16.79;80.79
73133;DHT22;61320;52.008;4.530;2023-08-31T08:44:56;16.81;79.79
73133;DHT22;61320;52.008;4.530;2023-08-31T08:47:22;16.81;80.25
73133;DHT22;61320;52.008;4.530;2023-08-31T08:49:48;16.88;79.80
73133;DHT22;61320;52.008;4.530;2023-08-31T08:52:15;16.99;78.94
73133;DHT22;61320;52.008;4.530;2023-08-31T08:54:41;17.03;78.91
73133;DHT22;61320;52.008;4.530;2023-08-31T08:57:06;17.07;78.62
73133;DHT22;61320;52.008;4.530;2023-08-31T08:59:32;17.17;79.97
73133;DHT22;61320;52.008;4.530;2023-08-31T09:01:57;17.21;76.76
73133;DHT22;61320;52.008;4.530;2023-08-31T09:04:23;17.22;78.04
73133;DHT22;61320;52.008;4.530;2023-08-31T09:06:52;17.24;77.45
73133;DHT22;61320;52.008;4.530;2023-08-31T09:09:17;17.36;76.82
73133;DHT22;61320;52.008;4.530;2023-08-31T09:11:45;17.32;76.17
73133;DHT22;61320;52.008;4.530;2023-08-31T09:14:19;17.31;77.98
73133;DHT22;61320;52.008;4.530;2023-08-31T09:16:47;17.36;75.79
73133;DHT22;61320;52.008;4.530;2023-08-31T09:19:23;17.30;75.36
73133;DHT22;61320;52.008;4.530;2023-08-31T09:21:51;17.25;74.52
73133;DHT22;61320;52.008;4.530;2023-08-31T09:24:17;17.24;75.31
73133;DHT22;61320;52.008;4.530;2023-08-31T09:26:45;17.38;76.58
73133;DHT22;61320;52.008;4.530;2023-08-31T09:29:14;17.53;76.28
73133;DHT22;61320;52.008;4.530;2023-08-31T09:31:47;17.68;76.23
73133;DHT22;61320;52.008;4.530;2023-08-31T09:34:14;17.76;77.15
73133;DHT22;61320;52.008;4.530;2023-08-31T09:36:40;17.72;72.05
73133;DHT22;61320;52.008;4.530;2023-08-31T09:39:06;17.78;74.06
73133;DHT22;61320;52.008;4.530;2023-08-31T09:41:32;17.83;74.03
73133;DHT22;61320;52.008;4.530;2023-08-31T09:44:16;17.83;71.92
73133;DHT22;61320;52.008;4.530;2023-08-31T09:46:43;17.79;74.79
73133;DHT22;61320;52.008;4.530;2023-08-31T09:49:14;17.90;75.65
73133;DHT22;61320;52.008;4.530;2023-08-31T09:54:09;18.17;71.90
73133;DHT22;61320;52.008;4.530;2023-08-31T09:56:41;18.17;73.13
73133;DHT22;61320;52.008;4.530;2023-08-31T09:59:08;18.34;76.61
73133;DHT22;61320;52.008;4.530;2023-08-31T10:01:34;18.44;74.70
73133;DHT22;61320;52.008;4.530;2023-08-31T10:04:01;18.52;70.86
73133;DHT22;61320;52.008;4.530;2023-08-31T10:06:28;18.59;73.55
73133;DHT22;61320;52.008;4.530;2023-08-31T10:08:55;18.73;71.31
73133;DHT22;61320;52.008;4.530;2023-08-31T10:11:21;18.98;72.90
73133;DHT22;61320;52.008;4.530;2023-08-31T10:13:49;19.33;72.60
73133;DHT22;61320;52.008;4.530;2023-08-31T10:16:14;19.54;72.98
73133;DHT22;61320;52.008;4.530;2023-08-31T10:18:41;19.56;72.52
73133;DHT22;61320;52.008;4.530;2023-08-31T10:21:08;19.95;71.38
73133;DHT22;61320;52.008;4.530;2023-08-31T10:23:34;20.47;68.54
73133;DHT22;61320;52.008;4.530;2023-08-31T10:26:02;20.67;69.39
73133;DHT22;61320;52.008;4.530;2023-08-31T10:28:29;21.18;69.06
73133;DHT22;61320;52.008;4.530;2023-08-31T10:33:31;21.22;66.94
73133;DHT22;61320;52.008;4.530;2023-08-31T10:35:57;21.14;68.66
73133;DHT22;61320;52.008;4.530;2023-08-31T10:38:30;21.15;69.61
73133;DHT22;61320;52.008;4.530;2023-08-31T10:46:36;22.21;63.97
73133;DHT22;61320;52.008;4.530;2023-08-31T10:51:37;23.00;64.20
73133;DHT22;61320;52.008;4.530;2023-08-31T11:07:37;25.06;61.30
73133;DHT22;61320;52.008;4.530;2023-08-31T11:15:13;24.48;61.46
73133;DHT22;61320;52.008;4.530;2023-08-31T11:17:40;24.67;60.21
73133;DHT22;61320;52.008;4.530;2023-08-31T11:20:07;24.55;56.45
73133;DHT22;61320;52.008;4.530;2023-08-31T11:22:38;24.11;57.76
73133;DHT22;61320;52.008;4.530;2023-08-31T11:25:05;23.57;61.08
73133;DHT22;61320;52.008;4.530;2023-08-31T11:27:30;23.67;63.81
73133;DHT22;61320;52.008;4.530;2023-08-31T11:29:58;24.16;60.66
73133;DHT22;61320;52.008;4.530;2023-08-31T11:32:24;24.59;63.05
73133;DHT22;61320;52.008;4.530;2023-08-31T11:34:50;24.69;51.24
73133;DHT22;61320;52.008;4.530;2023-08-31T11:37:16;24.19;59.24
73133;DHT22;61320;52.008;4.530;2023-08-31T11:42:15;23.70;55.73
73133;DHT22;61320;52.008;4.530;2023-08-31T11:44:41;23.57;58.67
73133;DHT22;61320;52.008;4.530;2023-08-31T11:47:08;23.82;57.67
73133;DHT22;61320;52.008;4.530;2023-08-31T11:49:33;23.93;55.85
73133;DHT22;61320;52.008;4.530;2023-08-31T11:51:59;24.42;60.07
73133;DHT22;61320;52.008;4.530;2023-08-31T11:54:25;24.98;59.99
73133;DHT22;61320;52.008;4.530;2023-08-31T11:56:51;25.41;56.31
73133;DHT22;61320;52.008;4.530;2023-08-31T11:59:18;25.81;58.49
73133;DHT22;61320;52.008;4.530;2023-08-31T12:01:48;26.09;58.11
73133;DHT22;61320;52.008;4.530;2023-08-31T12:04:21;26.23;58.23
73133;DHT22;61320;52.008;4.530;2023-08-31T12:06:52;26.24;58.98
73133;DHT22;61320;52.008;4.530;2023-08-31T12:09:21;26.07;54.58
73133;DHT22;61320;52.008;4.530;2023-08-31T12:11:54;25.72;56.73
73133;DHT22;61320;52.008;4.530;2023-08-31T12:19:18;24.36;58.66
73133;DHT22;61320;52.008;4.530;2023-08-31T12:21:46;24.37;58.65
73133;DHT22;61320;52.008;4.530;2023-08-31T12:26:38;24.52;57.84
73133;DHT22;61320;52.008;4.530;2023-08-31T12:29:04;24.35;59.83
73133;DHT22;61320;52.008;4.530;2023-08-31T12:31:30;24.25;60.82
73133;DHT22;61320;52.008;4.530;2023-08-31T12:33:56;24.22;57.38
73133;DHT22;61320;52.008;4.530;2023-08-31T12:36:21;24.02;61.51
73133;DHT22;61320;52.008;4.530;2023-08-31T12:38:47;23.97;62.16
73133;DHT22;61320;52.008;4.530;2023-08-31T12:41:13;23.82;63.72
73133;DHT22;61320;52.008;4.530;2023-08-31T12:43:38;23.63;59.36
73133;DHT22;61320;52.008;4.530;2023-08-31T12:46:04;23.45;59.43
73133;DHT22;61320;52.008;4.530;2023-08-31T12:48:33;23.20;61.20
73133;DHT22;61320;52.008;4.530;2023-08-31T12:53:27;22.91;61.79
73133;DHT22;61320;52.008;4.530;2023-08-31T12:55:53;22.85;62.56
73133;DHT22;61320;52.008;4.530;2023-08-31T12:58:19;22.78;62.90
73133;DHT22;61320;52.008;4.530;2023-08-31T13:00:47;22.75;60.51
73133;DHT22;61320;52.008;4.530;2023-08-31T13:03:14;22.61;60.69
73133;DHT22;61320;52.008;4.530;2023-08-31T13:05:41;22.50;61.53
73133;DHT22;61320;52.008;4.530;2023-08-31T13:08:09;22.38;58.45
73133;DHT22;61320;52.008;4.530;2023-08-31T13:10:35;22.09;60.71
73133;DHT22;61320;52.008;4.530;2023-08-31T13:13:00;22.11;64.83
73133;DHT22;61320;52.008;4.530;2023-08-31T13:15:26;22.16;60.97
73133;DHT22;61320;52.008;4.530;2023-08-31T13:17:51;22.17;61.05
73133;DHT22;61320;52.008;4.530;2023-08-31T13:20:17;22.21;63.61
73133;DHT22;61320;52.008;4.530;2023-08-31T13:22:42;22.24;63.25
73133;DHT22;61320;52.008;4.530;2023-08-31T13:25:08;22.21;61.36
73133;DHT22;61320;52.008;4.530;2023-08-31T13:27:34;22.21;60.17
73133;DHT22;61320;52.008;4.530;2023-08-31T13:29:59;22.25;60.63
73133;DHT22;61320;52.008;4.530;2023-08-31T13:32:25;22.18;58.86
73133;DHT22;61320;52.008;4.530;2023-08-31T13:34:51;22.04;56.71
73133;DHT22;61320;52.008;4.530;2023-08-31T13:37:18;21.83;56.71
73133;DHT22;61320;52.008;4.530;2023-08-31T13:39:50;21.79;60.74
73133;DHT22;61320;52.008;4.530;2023-08-31T13:42:22;21.85;58.53
73133;DHT22;61320;52.008;4.530;2023-08-31T13:44:47;21.88;61.36
73133;DHT22;61320;52.008;4.530;2023-08-31T13:47:13;21.92;59.89
73133;DHT22;61320;52.008;4.530;2023-08-31T13:49:38;21.90;60.90
73133;DHT22;61320;52.008;4.530;2023-08-31T13:52:04;21.94;62.71
73133;DHT22;61320;52.008;4.530;2023-08-31T13:54:33;21.97;62.08
73133;DHT22;61320;52.008;4.530;2023-08-31T13:56:58;21.99;57.77
73133;DHT22;61320;52.008;4.530;2023-08-31T13:59:23;21.78;54.02
73133;DHT22;61320;52.008;4.530;2023-08-31T14:01:51;21.52;60.55
73133;DHT22;61320;52.008;4.530;2023-08-31T14:04:16;21.46;59.36
73133;DHT22;61320;52.008;4.530;2023-08-31T14:06:44;21.55;61.37
73133;DHT22;61320;52.008;4.530;2023-08-31T14:09:10;21.65;62.08
73133;DHT22;61320;52.008;4.530;2023-08-31T14:11:35;21.76;60.43
73133;DHT22;61320;52.008;4.530;2023-08-31T14:14:07;21.80;58.43
73133;DHT22;61320;52.008;4.530;2023-08-31T14:16:39;21.76;61.36
73133;DHT22;61320;52.008;4.530;2023-08-31T14:19:05;21.79;60.88
73133;DHT22;61320;52.008;4.530;2023-08-31T14:21:31;21.83;60.70
73133;DHT22;61320;52.008;4.530;2023-08-31T14:23:57;21.89;60.40
73133;DHT22;61320;52.008;4.530;2023-08-31T14:26:23;21.90;61.25
73133;DHT22;61320;52.008;4.530;2023-08-31T14:28:50;21.89;59.87
73133;DHT22;61320;52.008;4.530;2023-08-31T14:31:16;21.89;61.05
73133;DHT22;61320;52.008;4.530;2023-08-31T14:33:42;21.94;60.98
73133;DHT22;61320;52.008;4.530;2023-08-31T14:36:07;22.04;61.08
73133;DHT22;61320;52.008;4.530;2023-08-31T14:38:32;22.09;61.11
73133;DHT22;61320;52.008;4.530;2023-08-31T14:40:58;22.13;60.85
73133;DHT22;61320;52.008;4.530;2023-08-31T14:43:24;22.16;62.41
73133;DHT22;61320;52.008;4.530;2023-08-31T14:45:52;22.18;62.15
73133;DHT22;61320;52.008;4.530;2023-08-31T14:50:43;21.96;56.83
73133;DHT22;61320;52.008;4.530;2023-08-31T14:53:11;21.89;59.84
73133;DHT22;61320;52.008;4.530;2023-08-31T14:55:37;21.80;60.90
73133;DHT22;61320;52.008;4.530;2023-08-31T14:58:04;21.82;60.83
73133;DHT22;61320;52.008;4.530;2023-08-31T15:00:33;21.90;61.70
73133;DHT22;61320;52.008;4.530;2023-08-31T15:02:58;21.99;61.78
73133;DHT22;61320;52.008;4.530;2023-08-31T15:05:24;22.04;60.23
73133;DHT22;61320;52.008;4.530;2023-08-31T15:07:51;22.06;58.50
73133;DHT22;61320;52.008;4.530;2023-08-31T15:10:16;22.04;60.05
73133;DHT22;61320;52.008;4.530;2023-08-31T15:12:43;21.99;58.43
73133;DHT22;61320;52.008;4.530;2023-08-31T15:15:09;21.92;58.22
73133;DHT22;61320;52.008;4.530;2023-08-31T15:17:35;21.78;60.98
73133;DHT22;61320;52.008;4.530;2023-08-31T15:20:01;21.72;61.34
73133;DHT22;61320;52.008;4.530;2023-08-31T15:22:26;21.58;62.82
73133;DHT22;61320;52.008;4.530;2023-08-31T15:24:52;21.52;60.99
73133;DHT22;61320;52.008;4.530;2023-08-31T15:27:18;21.43;61.34
73133;DHT22;61320;52.008;4.530;2023-08-31T15:29:44;21.42;63.73
73133;DHT22;61320;52.008;4.530;2023-08-31T15:32:10;21.35;61.91
73133;DHT22;61320;52.008;4.530;2023-08-31T15:34:35;21.32;62.69
73133;DHT22;61320;52.008;4.530;2023-08-31T15:37:01;21.27;62.41
73133;DHT22;61320;52.008;4.530;2023-08-31T15:39:28;21.18;59.11
73133;DHT22;61320;52.008;4.530;2023-08-31T15:41:53;20.98;60.58
73133;DHT22;61320;52.008;4.530;2023-08-31T15:44:19;20.98;63.85
73133;DHT22;61320;52.008;4.530;2023-08-31T15:46:44;21.08;63.11
73133;DHT22;61320;52.008;4.530;2023-08-31T15:49:10;21.11;61.93
73133;DHT22;61320;52.008;4.530;2023-08-31T15:51:36;21.11;63.57
73133;DHT22;61320;52.008;4.530;2023-08-31T15:54:01;21.12;63.17
73133;DHT22;61320;52.008;4.530;2023-08-31T15:56:30;21.07;61.29
73133;DHT22;61320;52.008;4.530;2023-08-31T15:58:55;21.00;64.58
73133;DHT22;61320;52.008;4.530;2023-08-31T16:01:21;20.98;63.02
73133;DHT22;61320;52.008;4.530;2023-08-31T16:03:46;20.94;64.19
73133;DHT22;61320;52.008;4.530;2023-08-31T16:06:12;20.94;64.65
73133;DHT22;61320;52.008;4.530;2023-08-31T16:08:39;20.91;64.77
73133;DHT22;61320;52.008;4.530;2023-08-31T16:11:05;20.87;64.80
73133;DHT22;61320;52.008;4.530;2023-08-31T16:13:31;20.79;63.63
73133;DHT22;61320;52.008;4.530;2023-08-31T16:15:57;20.66;63.46
73133;DHT22;61320;52.008;4.530;2023-08-31T16:18:22;20.60;62.86
73133;DHT22;61320;52.008;4.530;2023-08-31T16:20:48;20.60;66.61